Etusivu
METAR-TAF:

METAR-TAF

Lentoasemat :

Whiteside County Airport (Jos. H. Bittorf Field)

Sterling / Rock Falls, Illinois, Yhdysvallat

Leveyspiiri: 41-45N, Pituuspiiri: 089-40W, korkeus merenpinnasta: 197 m

Tämänhetkinen sää

Tämä raportti tehtiin 14 minuuttia sitten, kello 15.56 UTC
Tuuli 4 kn eri suunnista
Lämpötila 29°C
Kosteus 74%
Ilmanpaine 1013 hPa
Näkyvyys: 16.1 km
Muutamia pilviä 1600 ft:n korkeudessa

METAR: KSQI 101556Z VRB04KT 10SM FEW016 29/24 A2992 RMK AO2 SLP994 T02890244

Aika: 11:10 (16:10 UTC)


TAF: puuttuu

Säähavainnot ja -ennusteet yli 4000 lentoasemalta (METAR- ja TAF-raportit).

Käytössä olevat sääasemat on merkitty karttaan keltaisilla ja punaisilla pisteillä.

Aseta hiiri pisteen päälle nähdäksesi sääaseman nimen.

Klikkaa sitten nähdäksesi säähavainnot ja -ennusteet.

Kartan vaihtaminen: klikkaa mustalla rastilla varustettuja vihreitä pisteitä, niin voit zoomata sisään; viivalla varustettua vihreää pistettä, niin voit zoomata ulos tai vihreitä nuolia, niin pääset viereisille kartoille.


METAR-TAF: